createdAt,value
2023-05-01T00:01:00.068Z,101628.84
2023-05-01T00:03:27.612Z,101623.56
2023-05-01T00:06:01.584Z,101625.38
2023-05-01T00:08:28.919Z,101614.81
2023-05-01T00:10:56.128Z,101622.78
2023-05-01T00:13:24.491Z,101611.41
2023-05-01T00:15:52.519Z,101611.41
2023-05-01T00:18:19.731Z,101608.81
2023-05-01T00:20:46.794Z,101604.44
2023-05-01T00:23:13.943Z,101600.97
2023-05-01T00:25:40.927Z,101596.56
2023-05-01T00:28:08.224Z,101598.38
2023-05-01T00:30:35.653Z,101591.34
2023-05-01T00:33:03.060Z,101592.25
2023-05-01T00:35:30.974Z,101587.84
2023-05-01T00:37:58.415Z,101585.25
2023-05-01T00:40:25.746Z,101585.25
2023-05-01T00:42:52.754Z,101579.13
2023-05-01T00:45:20.015Z,101585.38
2023-05-01T00:47:47.979Z,101575.69
2023-05-01T00:50:15.129Z,101566.91
2023-05-01T00:52:42.568Z,101559.97
2023-05-01T00:55:09.803Z,101568.75
2023-05-01T00:57:37.189Z,101560.88
2023-05-01T01:00:05.438Z,101566.19
2023-05-01T01:02:32.947Z,101557.47
2023-05-01T01:05:00.275Z,101558.34
2023-05-01T01:07:58.183Z,101547.81
2023-05-01T01:10:41.455Z,101547.03
2023-05-01T01:13:19.305Z,101540.91
2023-05-01T01:15:57.024Z,101543.59
2023-05-01T01:18:48.253Z,101534.84
2023-05-01T01:21:29.549Z,101530.50
2023-05-01T01:24:33.967Z,101527.06
2023-05-01T01:27:25.953Z,101529.69
2023-05-01T01:30:39.435Z,101528.00
2023-05-01T01:33:49.825Z,101520.16
2023-05-01T01:36:43.004Z,101522.84
2023-05-01T01:39:23.501Z,101512.38
2023-05-01T01:41:54.622Z,101506.28
2023-05-01T01:44:34.236Z,101508.09
2023-05-01T01:47:06.515Z,101495.00
2023-05-01T01:49:40.419Z,101498.56
2023-05-01T01:52:10.925Z,101499.47
2023-05-01T01:54:48.615Z,101492.44
2023-05-01T01:57:19.431Z,101488.13
2023-05-01T01:59:49.895Z,101484.59
2023-05-01T02:02:21.115Z,101488.19
2023-05-01T02:04:53.864Z,101484.72
2023-05-01T02:07:23.549Z,101481.28
2023-05-01T02:09:54.921Z,101474.31
2023-05-01T02:12:26.694Z,101475.31
2023-05-01T02:14:55.036Z,101468.31
2023-05-01T02:17:22.638Z,101466.66
2023-05-01T02:19:53.328Z,101463.19
2023-05-01T02:22:22.643Z,101462.38
2023-05-01T02:24:50.223Z,101462.41
2023-05-01T02:27:23.385Z,101463.34
2023-05-01T02:29:53.991Z,101456.34
2023-05-01T02:32:21.121Z,101452.91
2023-05-01T02:34:49.138Z,101455.53
2023-05-01T02:37:17.173Z,101451.22
2023-05-01T02:39:45.912Z,101445.97
2023-05-01T02:42:16.545Z,101443.34
2023-05-01T02:44:53.796Z,101448.63
2023-05-01T02:47:23.879Z,101439.00
2023-05-01T02:49:53.030Z,101446.03
2023-05-01T02:52:23.004Z,101442.53
2023-05-01T02:54:57.262Z,101434.59
2023-05-01T02:57:24.573Z,101435.50
2023-05-01T02:59:51.638Z,101425.84
2023-05-01T03:02:18.869Z,101423.25
2023-05-01T03:04:46.019Z,101425.94
2023-05-01T03:07:13.750Z,101425.09
2023-05-01T03:09:40.722Z,101422.44
2023-05-01T03:12:07.928Z,101417.19
2023-05-01T03:14:34.990Z,101416.38
2023-05-01T03:17:02.112Z,101415.47
2023-05-01T03:19:29.193Z,101410.25
2023-05-01T03:21:56.154Z,101410.25
2023-05-01T03:24:24.327Z,101411.19
2023-05-01T03:26:51.279Z,101402.50
2023-05-01T03:29:18.279Z,101399.03
2023-05-01T03:31:45.272Z,101399.97
2023-05-01T03:34:12.598Z,101395.66
2023-05-01T03:36:39.634Z,101395.69
2023-05-01T03:39:08.561Z,101404.53
2023-05-01T03:41:54.190Z,101405.41
2023-05-01T03:44:26.817Z,101395.78
2023-05-01T03:46:54.173Z,101393.16
2023-05-01T03:49:25.836Z,101396.66
2023-05-01T03:51:52.813Z,101385.25
2023-05-01T03:54:19.793Z,101384.41
2023-05-01T03:56:58.594Z,101384.44
2023-05-01T03:59:25.823Z,101381.84
2023-05-01T04:01:53.015Z,101374.88
2023-05-01T04:04:21.137Z,101376.75
2023-05-01T04:06:55.410Z,101379.41
2023-05-01T04:09:22.465Z,101376.81
2023-05-01T04:11:49.456Z,101378.66
2023-05-01T04:14:16.816Z,101373.38
2023-05-01T04:16:43.867Z,101373.47
2023-05-01T04:19:10.779Z,101373.47
2023-05-01T04:21:42.499Z,101374.34
2023-05-01T04:24:09.447Z,101375.28
2023-05-01T04:26:36.582Z,101371.81
2023-05-01T04:29:03.648Z,101367.44
2023-05-01T04:31:32.874Z,101366.56
2023-05-01T04:33:59.859Z,101364.81
2023-05-01T04:36:26.866Z,101362.22
2023-05-01T04:38:53.812Z,101358.66
2023-05-01T04:41:21.556Z,101352.53
2023-05-01T04:43:48.660Z,101359.53
2023-05-01T04:46:18.684Z,101358.63
2023-05-01T04:48:45.711Z,101361.19
2023-05-01T04:51:12.758Z,101363.75
2023-05-01T04:53:40.049Z,101361.97
2023-05-01T04:56:16.506Z,101366.25
2023-05-01T04:58:44.767Z,101360.06
2023-05-01T05:01:16.168Z,101366.09
2023-05-01T05:03:43.512Z,101361.56
2023-05-01T05:06:12.276Z,101360.56
2023-05-01T05:08:39.355Z,101355.13
2023-05-01T05:11:10.980Z,101353.25
2023-05-01T05:14:03.980Z,101344.41
2023-05-01T05:16:31.135Z,101352.16
2023-05-01T05:18:58.280Z,101348.56
2023-05-01T05:21:27.842Z,101356.34
2023-05-01T05:23:57.506Z,101358.84
2023-05-01T05:26:27.101Z,101355.19
2023-05-01T05:28:56.973Z,101361.09
2023-05-01T05:31:24.131Z,101361.88
2023-05-01T05:33:51.136Z,101355.56
2023-05-01T05:36:18.599Z,101360.72
2023-05-01T05:38:45.823Z,101364.94
2023-05-01T05:41:17.647Z,101365.75
2023-05-01T05:43:45.216Z,101364.75
2023-05-01T05:46:12.700Z,101363.78
2023-05-01T05:48:41.497Z,101359.31
2023-05-01T05:51:08.744Z,101352.25
2023-05-01T05:53:35.843Z,101352.28
2023-05-01T05:56:02.909Z,101354.03
2023-05-01T05:58:31.426Z,101353.13
2023-05-01T06:00:58.773Z,101355.66
2023-05-01T06:03:27.297Z,101372.31
2023-05-01T06:05:58.225Z,101371.28
2023-05-01T06:08:25.302Z,101361.44
2023-05-01T06:10:52.402Z,101360.34
2023-05-01T06:13:19.437Z,101352.31
2023-05-01T06:15:49.114Z,101357.50
2023-05-01T06:18:16.793Z,101362.50
2023-05-01T06:20:44.925Z,101354.28
2023-05-01T06:23:13.697Z,101346.94
2023-05-01T06:26:00.290Z,101354.81
2023-05-01T06:28:27.273Z,101355.66
2023-05-01T06:30:55.129Z,101352.91
2023-05-01T06:33:23.393Z,101343.34
2023-05-01T06:36:02.394Z,101349.47
2023-05-01T06:38:29.360Z,101351.34
2023-05-01T06:40:56.715Z,101353.00
2023-05-01T06:43:23.816Z,101350.25
2023-05-01T06:45:53.457Z,101348.19
2023-05-01T06:48:20.694Z,101354.84
2023-05-01T06:50:47.712Z,101347.53
2023-05-01T06:53:14.656Z,101348.72
2023-05-01T06:55:41.635Z,101353.59
2023-05-01T06:58:21.976Z,101340.91
2023-05-01T07:00:51.137Z,101339.31
2023-05-01T07:03:18.294Z,101344.91
2023-05-01T07:05:45.307Z,101342.63
2023-05-01T07:08:12.321Z,101342.94
2023-05-01T07:10:41.773Z,101344.16
2023-05-01T07:13:09.885Z,101344.47
2023-05-01T07:15:37.320Z,101339.69
2023-05-01T07:18:08.308Z,101336.84
2023-05-01T07:20:35.592Z,101340.00
2023-05-01T07:23:03.143Z,101335.84
2023-05-01T07:25:31.444Z,101341.34
2023-05-01T07:28:00.784Z,101338.00
2023-05-01T07:30:30.406Z,101340.03
2023-05-01T07:32:58.043Z,101340.41
2023-05-01T07:35:25.489Z,101345.53
2023-05-01T07:37:52.803Z,101343.59
2023-05-01T07:40:19.743Z,101338.28
2023-05-01T07:42:46.913Z,101336.47
2023-05-01T07:45:13.981Z,101331.97
2023-05-01T07:47:41.038Z,101322.13
2023-05-01T07:50:12.751Z,101318.34
2023-05-01T07:52:39.755Z,101328.13
2023-05-01T07:55:07.764Z,101324.59
2023-05-01T07:57:36.205Z,101324.66
2023-05-01T08:00:03.641Z,101328.75
2023-05-01T08:02:41.290Z,101329.41
2023-05-01T08:05:09.001Z,101327.28
2023-05-01T08:07:36.310Z,101333.22
2023-05-01T08:10:03.642Z,101323.28
2023-05-01T08:12:31.465Z,101322.88
2023-05-01T08:14:58.408Z,101327.72
2023-05-01T08:17:25.412Z,101329.72
2023-05-01T08:19:56.619Z,101332.31
2023-05-01T08:22:24.211Z,101328.84
2023-05-01T08:24:51.661Z,101321.53
2023-05-01T08:27:18.807Z,101321.25
2023-05-01T08:29:45.854Z,101319.28
2023-05-01T08:32:12.838Z,101321.75
2023-05-01T08:34:39.824Z,101307.41
2023-05-01T08:37:06.810Z,101319.88
2023-05-01T08:39:33.808Z,101321.03
2023-05-01T08:42:01.238Z,101314.94
2023-05-01T08:44:28.855Z,101317.75
2023-05-01T08:47:17.798Z,101321.16
2023-05-01T08:49:46.721Z,101319.50
2023-05-01T08:52:15.332Z,101313.16
2023-05-01T08:54:45.229Z,101317.88
2023-05-01T08:57:12.973Z,101313.75
2023-05-01T08:59:40.927Z,101313.91
2023-05-01T09:02:10.151Z,101314.09
2023-05-01T09:04:41.082Z,101315.63
2023-05-01T09:07:10.078Z,101313.06
2023-05-01T09:09:37.306Z,101319.72
2023-05-01T09:12:27.449Z,101319.09
2023-05-01T09:14:56.795Z,101318.03
2023-05-01T09:17:24.853Z,101322.81
2023-05-01T09:19:53.203Z,101319.34
2023-05-01T09:22:21.256Z,101328.50
2023-05-01T09:24:48.485Z,101329.34
2023-05-01T09:27:16.222Z,101316.09
2023-05-01T09:29:46.622Z,101313.31
2023-05-01T09:32:17.365Z,101306.19
2023-05-01T09:34:44.864Z,101305.22
2023-05-01T09:37:33.249Z,101304.78
2023-05-01T09:40:08.847Z,101309.72
2023-05-01T09:42:37.521Z,101310.91
2023-05-01T09:45:16.882Z,101303.69
2023-05-01T09:47:48.005Z,101309.28
2023-05-01T09:50:34.388Z,101292.28
2023-05-01T09:53:05.136Z,101305.81
2023-05-01T09:55:33.640Z,101299.34
2023-05-01T09:58:01.014Z,101296.06
2023-05-01T10:00:27.980Z,101302.75
2023-05-01T10:02:55.129Z,101303.31
2023-05-01T10:05:23.199Z,101306.69
2023-05-01T10:07:59.793Z,101302.88
2023-05-01T10:10:27.693Z,101308.31
2023-05-01T10:12:55.483Z,101302.81
2023-05-01T10:15:26.069Z,101305.88
2023-05-01T10:17:54.778Z,101299.97
2023-05-01T10:20:22.367Z,101304.94
2023-05-01T10:22:49.850Z,101304.56
2023-05-01T10:25:18.787Z,101304.19
2023-05-01T10:27:46.655Z,101311.53
2023-05-01T10:30:17.217Z,101302.00
2023-05-01T10:32:44.379Z,101302.97
2023-05-01T10:35:20.773Z,101300.13
2023-05-01T10:38:02.769Z,101298.31
2023-05-01T10:40:38.905Z,101292.28
2023-05-01T10:43:31.173Z,101296.19
2023-05-01T10:46:07.361Z,101300.97
2023-05-01T10:48:40.853Z,101291.38
2023-05-01T10:51:12.485Z,101295.19
2023-05-01T10:53:44.587Z,101293.41
2023-05-01T10:56:30.300Z,101290.41
2023-05-01T10:59:06.667Z,101291.84
2023-05-01T11:01:42.382Z,101284.38
2023-05-01T11:04:28.015Z,101276.44
2023-05-01T11:07:11.456Z,101279.38
2023-05-01T11:10:01.813Z,101275.94
2023-05-01T11:12:47.121Z,101275.31
2023-05-01T11:15:33.817Z,101276.19
2023-05-01T11:18:03.798Z,101272.34
2023-05-01T11:20:36.985Z,101282.22
2023-05-01T11:23:03.958Z,101279.22
2023-05-01T11:25:31.923Z,101283.44
2023-05-01T11:28:02.104Z,101283.66
2023-05-01T11:30:40.062Z,101277.53
2023-05-01T11:33:10.209Z,101275.44
2023-05-01T11:35:38.667Z,101275.53
2023-05-01T11:38:05.816Z,101267.47
2023-05-01T11:40:34.962Z,101268.31
2023-05-01T11:43:08.089Z,101271.66
2023-05-01T11:45:37.168Z,101265.31
2023-05-01T11:48:05.549Z,101267.66
2023-05-01T11:50:37.144Z,101259.25
2023-05-01T11:53:18.507Z,101262.84
2023-05-01T11:55:45.636Z,101251.84
2023-05-01T11:58:13.027Z,101252.28
2023-05-01T12:00:43.249Z,101255.66
2023-05-01T12:03:15.002Z,101254.91
2023-05-01T12:05:45.092Z,101257.16
2023-05-01T12:08:19.035Z,101254.97
2023-05-01T12:10:56.210Z,101257.25
2023-05-01T12:13:25.271Z,101258.66
2023-05-01T12:15:54.777Z,101262.91
2023-05-01T12:18:22.784Z,101261.59
2023-05-01T12:20:56.428Z,101255.59
2023-05-01T12:23:39.684Z,101255.69
2023-05-01T12:26:23.632Z,101258.81
2023-05-01T12:28:58.883Z,101247.56
2023-05-01T12:31:27.571Z,101247.19
2023-05-01T12:33:58.424Z,101246.84
2023-05-01T12:36:30.235Z,101248.47
2023-05-01T12:39:07.934Z,101246.63
2023-05-01T12:41:46.766Z,101239.19
2023-05-01T12:44:23.863Z,101239.38
2023-05-01T12:47:07.189Z,101243.88
2023-05-01T12:49:40.553Z,101251.25
2023-05-01T12:52:09.280Z,101247.75
2023-05-01T12:54:39.868Z,101242.63
2023-05-01T12:57:14.992Z,101248.63
2023-05-01T12:59:47.256Z,101247.38
2023-05-01T13:04:45.521Z,101254.19
2023-05-01T13:07:18.530Z,101243.56
2023-05-01T13:09:58.723Z,101263.03
2023-05-01T13:12:28.073Z,101258.81
2023-05-01T13:14:55.827Z,101266.44
2023-05-01T13:17:28.671Z,101268.81
2023-05-01T13:20:02.050Z,101268.28
2023-05-01T13:22:39.175Z,101267.53
2023-05-01T13:25:17.993Z,101268.47
2023-05-01T13:27:53.366Z,101280.69
2023-05-01T13:30:31.756Z,101269.56
2023-05-01T13:32:58.778Z,101269.00
2023-05-01T13:35:27.131Z,101284.38
2023-05-01T13:37:55.032Z,101276.50
2023-05-01T13:40:26.036Z,101279.69
2023-05-01T13:42:54.013Z,101285.06
2023-05-01T13:45:21.406Z,101292.66
2023-05-01T13:47:51.895Z,101294.91
2023-05-01T13:50:19.229Z,101286.47
2023-05-01T13:52:46.362Z,101299.34
2023-05-01T13:55:14.644Z,101304.91
2023-05-01T13:57:43.151Z,101286.31
2023-05-01T14:00:19.182Z,101296.69
2023-05-01T14:02:49.106Z,101298.09
2023-05-01T14:05:24.642Z,101299.63
2023-05-01T14:07:55.533Z,101284.50
2023-05-01T14:10:27.605Z,101289.84
2023-05-01T14:12:58.912Z,101303.91
2023-05-01T14:15:26.883Z,101304.50
2023-05-01T14:17:53.929Z,101301.69
2023-05-01T14:20:21.142Z,101299.38
2023-05-01T14:22:51.810Z,101302.50
2023-05-01T14:25:28.597Z,101290.91
2023-05-01T14:27:56.737Z,101301.13
2023-05-01T14:30:37.496Z,101302.31
2023-05-01T14:33:13.318Z,101301.69
2023-05-01T14:35:49.856Z,101296.38
2023-05-01T14:38:19.285Z,101300.91
2023-05-01T14:40:48.071Z,101316.44
2023-05-01T14:43:19.172Z,101302.50
2023-05-01T14:45:46.789Z,101313.72
2023-05-01T14:48:23.271Z,101304.09
2023-05-01T14:50:51.914Z,101306.59
2023-05-01T14:53:18.923Z,101302.69
2023-05-01T14:55:50.993Z,101308.19
2023-05-01T14:58:17.960Z,101307.88
2023-05-01T15:00:44.924Z,101310.16
2023-05-01T15:03:12.077Z,101313.06
2023-05-01T15:05:41.682Z,101314.41
2023-05-01T15:08:09.357Z,101319.00
2023-05-01T15:10:37.227Z,101326.50
2023-05-01T15:13:04.452Z,101328.28
2023-05-01T15:15:31.491Z,101335.41
2023-05-01T15:17:58.458Z,101335.19
2023-05-01T15:20:25.562Z,101340.25
2023-05-01T15:22:52.599Z,101343.63
2023-05-01T15:25:19.466Z,101339.50
2023-05-01T15:27:46.465Z,101346.81
2023-05-01T15:30:15.027Z,101346.19
2023-05-01T15:32:42.787Z,101353.00
2023-05-01T15:35:10.155Z,101346.59
2023-05-01T15:37:37.045Z,101354.06
2023-05-01T15:40:05.498Z,101354.75
2023-05-01T15:42:32.450Z,101358.97
2023-05-01T15:45:00.263Z,101359.56
2023-05-01T15:47:28.377Z,101356.72
2023-05-01T15:49:55.456Z,101373.34
2023-05-01T15:52:22.458Z,101370.47
2023-05-01T15:54:49.421Z,101370.34
2023-05-01T15:57:18.887Z,101372.44
2023-05-01T15:59:45.946Z,101376.63
2023-05-01T16:02:12.970Z,101391.28
2023-05-01T16:04:40.113Z,101390.81
2023-05-01T16:07:08.829Z,101386.75
2023-05-01T16:09:36.074Z,101394.81
2023-05-01T16:12:03.514Z,101393.19
2023-05-01T16:14:31.179Z,101397.56
2023-05-01T16:16:58.277Z,101390.66
2023-05-01T16:19:28.923Z,101393.41
2023-05-01T16:21:56.014Z,101396.06
2023-05-01T16:24:23.034Z,101409.63
2023-05-01T16:26:50.053Z,101402.56
2023-05-01T16:29:18.440Z,101403.47
2023-05-01T16:31:48.365Z,101406.19
2023-05-01T16:34:20.937Z,101406.03
2023-05-01T16:36:47.965Z,101408.31
2023-05-01T16:39:19.140Z,101408.69
2023-05-01T16:41:54.859Z,101409.97
2023-05-01T16:44:22.747Z,101411.88
2023-05-01T16:46:55.782Z,101406.97
2023-05-01T16:49:27.114Z,101409.38
2023-05-01T16:51:56.976Z,101410.88
2023-05-01T16:54:35.872Z,101407.16
2023-05-01T16:57:03.514Z,101404.84
2023-05-01T16:59:31.154Z,101415.03
2023-05-01T17:01:58.212Z,101409.22
2023-05-01T17:04:25.739Z,101413.34
2023-05-01T17:06:52.993Z,101432.13
2023-05-01T17:09:20.629Z,101420.97
2023-05-01T17:11:58.986Z,101415.88
2023-05-01T17:14:28.966Z,101422.94
2023-05-01T17:16:59.288Z,101420.59
2023-05-01T17:19:26.611Z,101419.09
2023-05-01T17:21:53.651Z,101426.19
2023-05-01T17:24:21.036Z,101427.41
2023-05-01T17:26:47.984Z,101422.06
2023-05-01T17:29:15.267Z,101420.59
2023-05-01T17:31:42.241Z,101422.72
2023-05-01T17:34:09.239Z,101423.56
2023-05-01T17:36:36.670Z,101434.66
2023-05-01T17:39:04.153Z,101427.28
2023-05-01T17:41:31.202Z,101430.06
2023-05-01T17:43:58.113Z,101432.22
2023-05-01T17:46:25.360Z,101429.06
2023-05-01T17:48:52.528Z,101429.59
2023-05-01T17:51:19.620Z,101437.00
2023-05-01T17:53:46.625Z,101441.97
2023-05-01T17:56:13.680Z,101447.75
2023-05-01T17:58:41.221Z,101448.38
2023-05-01T18:01:08.527Z,101445.63
2023-05-01T18:03:35.675Z,101451.28
2023-05-01T18:06:02.950Z,101449.22
2023-05-01T18:08:30.269Z,101455.22
2023-05-01T18:10:57.317Z,101455.03
2023-05-01T18:13:28.089Z,101454.81
2023-05-01T18:15:56.288Z,101460.69
2023-05-01T18:18:23.730Z,101472.94
2023-05-01T18:20:50.780Z,101473.78
2023-05-01T18:23:18.982Z,101475.66
2023-05-01T18:25:46.374Z,101472.25
2023-05-01T18:28:16.439Z,101475.56
2023-05-01T18:30:43.769Z,101482.16
2023-05-01T18:33:12.076Z,101485.06
2023-05-01T18:35:42.505Z,101491.56
2023-05-01T18:38:10.731Z,101493.50
2023-05-01T18:40:38.020Z,101502.38
2023-05-01T18:43:05.146Z,101506.69
2023-05-01T18:45:32.202Z,101508.19
2023-05-01T18:48:00.700Z,101506.16
2023-05-01T18:50:28.992Z,101509.44
2023-05-01T18:52:56.165Z,101510.91
2023-05-01T18:55:23.198Z,101515.75
2023-05-01T18:57:50.395Z,101521.44
2023-05-01T19:00:17.885Z,101531.44
2023-05-01T19:02:51.166Z,101527.44
2023-05-01T19:05:18.575Z,101532.94
2023-05-01T19:07:45.621Z,101537.63
2023-05-01T19:10:12.560Z,101546.63
2023-05-01T19:12:39.575Z,101554.72
2023-05-01T19:15:07.345Z,101549.34
2023-05-01T19:17:34.347Z,101548.50
2023-05-01T19:20:02.590Z,101548.50
2023-05-01T19:22:29.600Z,101553.84
2023-05-01T19:24:56.538Z,101557.47
2023-05-01T19:27:25.380Z,101551.50
2023-05-01T19:29:54.194Z,101563.19
2023-05-01T19:32:22.954Z,101560.72
2023-05-01T19:34:50.253Z,101564.50
2023-05-01T19:37:17.500Z,101570.88
2023-05-01T19:39:44.566Z,101571.19
2023-05-01T19:42:11.911Z,101575.03
2023-05-01T19:44:38.946Z,101577.13
2023-05-01T19:47:06.318Z,101580.09
2023-05-01T19:49:33.253Z,101589.25
2023-05-01T19:52:00.526Z,101591.31
2023-05-01T19:54:28.473Z,101588.13
2023-05-01T19:56:56.069Z,101596.28
2023-05-01T19:59:23.360Z,101593.91
2023-05-01T20:01:50.618Z,101607.31
2023-05-01T20:04:17.840Z,101604.81
2023-05-01T20:06:44.945Z,101602.38
2023-05-01T20:09:11.929Z,101592.94
2023-05-01T20:11:38.888Z,101592.25
2023-05-01T20:14:05.884Z,101609.19
2023-05-01T20:16:33.065Z,101604.09
2023-05-01T20:19:00.336Z,101610.47
2023-05-01T20:21:27.374Z,101626.41
2023-05-01T20:23:55.036Z,101623.06
2023-05-01T20:26:22.008Z,101623.25
2023-05-01T20:28:50.960Z,101632.22
2023-05-01T20:31:17.969Z,101631.44
2023-05-01T20:33:44.995Z,101643.03
2023-05-01T20:36:12.556Z,101644.97
2023-05-01T20:38:46.349Z,101646.88
2023-05-01T20:41:14.372Z,101650.56
2023-05-01T20:43:41.443Z,101651.56
2023-05-01T20:46:08.433Z,101652.56
2023-05-01T20:48:35.487Z,101650.00
2023-05-01T20:51:02.508Z,101657.97
2023-05-01T20:53:29.447Z,101660.69
2023-05-01T20:55:56.407Z,101665.97
2023-05-01T20:58:23.417Z,101665.16
2023-05-01T21:00:55.275Z,101677.56
2023-05-01T21:03:22.487Z,101671.41
2023-05-01T21:05:49.476Z,101673.22
2023-05-01T21:08:16.617Z,101668.88
2023-05-01T21:10:43.600Z,101660.22
2023-05-01T21:13:10.767Z,101667.28
2023-05-01T21:15:41.530Z,101665.69
2023-05-01T21:18:12.462Z,101666.69
2023-05-01T21:20:41.281Z,101672.97
2023-05-01T21:23:08.380Z,101671.34
2023-05-01T21:25:35.332Z,101670.59
2023-05-01T21:28:05.365Z,101674.19
2023-05-01T21:30:35.494Z,101674.38
2023-05-01T21:33:06.224Z,101677.09
2023-05-01T21:35:34.107Z,101676.31
2023-05-01T21:38:01.126Z,101670.19
2023-05-01T21:40:28.188Z,101687.88
2023-05-01T21:42:56.271Z,101692.31
2023-05-01T21:45:24.540Z,101691.56
2023-05-01T21:47:51.916Z,101701.31
2023-05-01T21:50:21.453Z,101697.91
2023-05-01T21:52:50.002Z,101700.63
2023-05-01T21:55:25.663Z,101713.03
2023-05-01T21:57:55.607Z,101710.47
2023-05-01T22:00:22.686Z,101715.00
2023-05-01T22:02:51.454Z,101717.72
2023-05-01T22:05:22.828Z,101713.41
2023-05-01T22:07:54.114Z,101711.72
2023-05-01T22:10:21.329Z,101723.28
2023-05-01T22:12:51.737Z,101720.72
2023-05-01T22:15:19.304Z,101720.00
2023-05-01T22:17:46.486Z,101735.03
2023-05-01T22:20:13.607Z,101736.00
2023-05-01T22:22:42.847Z,101719.44
2023-05-01T22:25:12.012Z,101726.56
2023-05-01T22:27:39.201Z,101733.63
2023-05-01T22:30:07.239Z,101724.00
2023-05-01T22:32:34.376Z,101727.56
2023-05-01T22:35:01.456Z,101729.34
2023-05-01T22:37:28.479Z,101735.53
2023-05-01T22:39:55.627Z,101732.09
2023-05-01T22:42:23.288Z,101735.66
2023-05-01T22:44:50.309Z,101741.84
2023-05-01T22:47:17.513Z,101751.53
2023-05-01T22:49:44.895Z,101740.16
2023-05-01T22:52:11.871Z,101742.81
2023-05-01T22:54:38.918Z,101749.88
2023-05-01T22:57:06.058Z,101757.81
2023-05-01T22:59:33.108Z,101760.38
2023-05-01T23:02:03.967Z,101766.41
2023-05-01T23:04:32.199Z,101773.34
2023-05-01T23:06:59.344Z,101773.28
2023-05-01T23:09:26.528Z,101784.63
2023-05-01T23:11:53.656Z,101781.97
2023-05-01T23:14:20.759Z,101788.97
2023-05-01T23:16:47.898Z,101789.84
2023-05-01T23:19:24.397Z,101795.09
2023-05-01T23:22:08.523Z,101791.53
2023-05-01T23:24:49.814Z,101797.66
2023-05-01T23:27:19.804Z,101794.09
2023-05-01T23:29:57.156Z,101795.81
2023-05-01T23:32:30.741Z,101801.88
2023-05-01T23:35:07.639Z,101803.53
2023-05-01T23:37:34.589Z,101803.44
2023-05-01T23:40:02.084Z,101800.72
2023-05-01T23:42:29.725Z,101803.31
2023-05-01T23:44:57.200Z,101800.63
2023-05-01T23:47:24.403Z,101808.53
2023-05-01T23:49:51.847Z,101807.59
2023-05-01T23:52:18.932Z,101810.16
2023-05-01T23:54:45.985Z,101806.59
2023-05-01T23:57:12.937Z,101807.47
2023-05-01T23:59:39.840Z,101809.16
